sensor_id;sensor_type;location;lat;lon;timestamp;pressure;altitude;pressure_sealevel;temperature;humidity
50592;BME280;36548;50.506;30.834;2023-04-26T00:00:49;98995.70;;;14.35;50.00
50592;BME280;36548;50.506;30.834;2023-04-26T00:01:58;99008.27;;;14.26;49.93
50592;BME280;36548;50.506;30.834;2023-04-26T00:03:15;99005.34;;;14.37;49.93
50592;BME280;36548;50.506;30.834;2023-04-26T00:04:25;99016.22;;;14.27;49.96
50592;BME280;36548;50.506;30.834;2023-04-26T00:05:43;99002.33;;;14.40;49.90
50592;BME280;36548;50.506;30.834;2023-04-26T00:06:52;99013.20;;;14.30;49.90
50592;BME280;36548;50.506;30.834;2023-04-26T00:08:08;99003.55;;;14.46;49.78
50592;BME280;36548;50.506;30.834;2023-04-26T00:09:18;99006.17;;;14.38;49.73
50592;BME280;36548;50.506;30.834;2023-04-26T00:10:33;99005.81;;;14.51;49.81
50592;BME280;36548;50.506;30.834;2023-04-26T00:11:43;99010.42;;;14.40;49.61
50592;BME280;36548;50.506;30.834;2023-04-26T00:12:58;99004.95;;;14.50;49.55
50592;BME280;36548;50.506;30.834;2023-04-26T00:14:09;99010.58;;;14.39;49.61
50592;BME280;36548;50.506;30.834;2023-04-26T00:15:26;99005.11;;;14.48;49.69
50592;BME280;36548;50.506;30.834;2023-04-26T00:16:36;99018.28;;;14.33;49.64
50592;BME280;36548;50.506;30.834;2023-04-26T00:17:51;99008.52;;;14.32;49.82
50592;BME280;36548;50.506;30.834;2023-04-26T00:19:00;99017.59;;;14.13;50.13
50592;BME280;36548;50.506;30.834;2023-04-26T00:20:16;99014.89;;;14.13;50.50
50592;BME280;36548;50.506;30.834;2023-04-26T00:21:26;99020.78;;;13.99;50.65
50592;BME280;36548;50.506;30.834;2023-04-26T00:22:43;99026.34;;;13.97;50.89
50592;BME280;36548;50.506;30.834;2023-04-26T00:23:52;99018.92;;;13.81;51.20
50592;BME280;36548;50.506;30.834;2023-04-26T00:25:09;99019.75;;;13.82;51.44
50592;BME280;36548;50.506;30.834;2023-04-26T00:26:19;99028.36;;;13.68;51.48
50592;BME280;36548;50.506;30.834;2023-04-26T00:27:34;99024.89;;;13.75;51.69
50592;BME280;36548;50.506;30.834;2023-04-26T00:28:44;99026.65;;;13.67;51.67
50592;BME280;36548;50.506;30.834;2023-04-26T00:30:19;99024.31;;;13.81;51.46
50592;BME280;36548;50.506;30.834;2023-04-26T00:31:28;99026.50;;;13.68;51.45
50592;BME280;36548;50.506;30.834;2023-04-26T00:32:44;99027.74;;;13.74;51.60
50592;BME280;36548;50.506;30.834;2023-04-26T00:33:54;99035.47;;;13.59;51.85
50592;BME280;36548;50.506;30.834;2023-04-26T00:35:10;99027.98;;;13.53;52.41
50592;BME280;36548;50.506;30.834;2023-04-26T00:36:20;99026.32;;;13.42;52.41
50592;BME280;36548;50.506;30.834;2023-04-26T00:37:36;99021.75;;;13.52;52.46
50592;BME280;36548;50.506;30.834;2023-04-26T00:38:45;99030.88;;;13.41;52.50
50592;BME280;36548;50.506;30.834;2023-04-26T00:40:01;99021.91;;;13.51;52.55
50592;BME280;36548;50.506;30.834;2023-04-26T00:41:11;99028.33;;;13.40;52.54
50592;BME280;36548;50.506;30.834;2023-04-26T00:42:21;99030.30;;;13.38;52.53
50592;BME280;36548;50.506;30.834;2023-04-26T00:43:37;99020.20;;;13.50;52.71
50592;BME280;36548;50.506;30.834;2023-04-26T00:44:47;99022.78;;;13.41;52.66
50592;BME280;36548;50.506;30.834;2023-04-26T00:46:05;99020.89;;;13.52;52.48
50592;BME280;36548;50.506;30.834;2023-04-26T00:47:16;99034.11;;;13.45;52.47
50592;BME280;36548;50.506;30.834;2023-04-26T00:48:35;99028.59;;;13.46;52.38
50592;BME280;36548;50.506;30.834;2023-04-26T00:49:44;99024.61;;;13.31;52.72
50592;BME280;36548;50.506;30.834;2023-04-26T00:51:01;99030.45;;;13.36;53.05
50592;BME280;36548;50.506;30.834;2023-04-26T00:52:10;99025.66;;;13.20;53.17
50592;BME280;36548;50.506;30.834;2023-04-26T00:53:22;99027.48;;;13.20;53.30
50592;BME280;36548;50.506;30.834;2023-04-26T00:54:38;99029.02;;;13.32;53.27
50592;BME280;36548;50.506;30.834;2023-04-26T00:55:48;99028.51;;;13.19;53.34
50592;BME280;36548;50.506;30.834;2023-04-26T00:56:59;99027.48;;;13.20;53.58
50592;BME280;36548;50.506;30.834;2023-04-26T00:58:15;99024.77;;;13.29;53.27
50592;BME280;36548;50.506;30.834;2023-04-26T00:59:27;99036.59;;;13.19;53.30
50592;BME280;36548;50.506;30.834;2023-04-26T01:00:42;99033.00;;;13.28;53.15
50592;BME280;36548;50.506;30.834;2023-04-26T01:01:52;99037.88;;;13.15;53.23
50592;BME280;36548;50.506;30.834;2023-04-26T01:03:03;99039.84;;;13.12;53.05
50592;BME280;36548;50.506;30.834;2023-04-26T01:04:19;99025.36;;;13.23;53.29
50592;BME280;36548;50.506;30.834;2023-04-26T01:05:31;99036.02;;;13.15;53.10
50592;BME280;36548;50.506;30.834;2023-04-26T01:06:47;99032.31;;;13.26;53.17
50592;BME280;36548;50.506;30.834;2023-04-26T01:07:56;99034.58;;;13.21;53.26
50592;BME280;36548;50.506;30.834;2023-04-26T01:09:13;99026.17;;;13.34;52.87
50592;BME280;36548;50.506;30.834;2023-04-26T01:10:24;99034.44;;;13.22;52.86
50592;BME280;36548;50.506;30.834;2023-04-26T01:11:41;99030.00;;;13.31;52.97
50592;BME280;36548;50.506;30.834;2023-04-26T01:12:51;99032.73;;;13.21;53.13
50592;BME280;36548;50.506;30.834;2023-04-26T01:14:06;99035.96;;;13.35;52.97
50592;BME280;36548;50.506;30.834;2023-04-26T01:15:16;99033.30;;;13.25;53.10
50592;BME280;36548;50.506;30.834;2023-04-26T01:16:32;99031.44;;;13.35;52.93
50592;BME280;36548;50.506;30.834;2023-04-26T01:17:44;99037.13;;;13.22;52.96
50592;BME280;36548;50.506;30.834;2023-04-26T01:18:53;99027.19;;;13.23;52.97
50592;BME280;36548;50.506;30.834;2023-04-26T01:20:08;99028.03;;;13.33;52.89
50592;BME280;36548;50.506;30.834;2023-04-26T01:21:20;99040.81;;;13.21;53.11
50592;BME280;36548;50.506;30.834;2023-04-26T01:22:36;99024.50;;;13.33;53.18
50592;BME280;36548;50.506;30.834;2023-04-26T01:23:47;99033.45;;;13.23;53.09
50592;BME280;36548;50.506;30.834;2023-04-26T01:25:05;99033.72;;;13.30;52.97
50592;BME280;36548;50.506;30.834;2023-04-26T01:26:18;99028.62;;;13.17;53.25
50592;BME280;36548;50.506;30.834;2023-04-26T01:27:34;99024.91;;;13.28;53.19
50592;BME280;36548;50.506;30.834;2023-04-26T01:28:44;99032.34;;;13.16;53.21
50592;BME280;36548;50.506;30.834;2023-04-26T01:30:03;99023.51;;;13.24;53.25
50592;BME280;36548;50.506;30.834;2023-04-26T01:31:14;99026.53;;;13.11;53.30
50592;BME280;36548;50.506;30.834;2023-04-26T01:32:29;99021.27;;;13.19;53.53
50592;BME280;36548;50.506;30.834;2023-04-26T01:33:39;99025.81;;;13.09;53.73
50592;BME280;36548;50.506;30.834;2023-04-26T01:34:54;99019.97;;;13.23;53.79
50592;BME280;36548;50.506;30.834;2023-04-26T01:36:08;99024.52;;;13.13;53.40
50592;BME280;36548;50.506;30.834;2023-04-26T01:37:24;99015.16;;;13.17;53.42
50592;BME280;36548;50.506;30.834;2023-04-26T01:38:34;99024.39;;;13.05;53.77
50592;BME280;36548;50.506;30.834;2023-04-26T01:39:49;99015.60;;;13.12;53.80
50592;BME280;36548;50.506;30.834;2023-04-26T01:41:00;99012.36;;;12.99;53.95
50592;BME280;36548;50.506;30.834;2023-04-26T01:42:16;99015.03;;;13.09;53.98
50592;BME280;36548;50.506;30.834;2023-04-26T01:43:25;99016.08;;;12.98;54.35
50592;BME280;36548;50.506;30.834;2023-04-26T01:44:42;99015.03;;;13.09;54.25
50592;BME280;36548;50.506;30.834;2023-04-26T01:45:51;99022.15;;;13.00;54.40
50592;BME280;36548;50.506;30.834;2023-04-26T01:47:08;99018.30;;;13.12;54.38
50592;BME280;36548;50.506;30.834;2023-04-26T01:48:16;99020.03;;;13.04;54.33
50592;BME280;36548;50.506;30.834;2023-04-26T01:49:32;99011.63;;;13.17;54.24
50592;BME280;36548;50.506;30.834;2023-04-26T01:50:41;99012.22;;;13.10;54.17
50592;BME280;36548;50.506;30.834;2023-04-26T01:51:56;99012.34;;;13.19;53.84
50592;BME280;36548;50.506;30.834;2023-04-26T01:53:05;99014.34;;;13.07;54.00
50592;BME280;36548;50.506;30.834;2023-04-26T01:54:22;99010.48;;;13.19;54.26
50592;BME280;36548;50.506;30.834;2023-04-26T01:55:30;99016.05;;;13.08;54.35
50592;BME280;36548;50.506;30.834;2023-04-26T01:56:45;99006.95;;;13.19;54.58
50592;BME280;36548;50.506;30.834;2023-04-26T01:57:54;99023.11;;;13.09;54.52
50592;BME280;36548;50.506;30.834;2023-04-26T01:59:09;99006.95;;;13.19;54.56
50592;BME280;36548;50.506;30.834;2023-04-26T02:00:20;99014.34;;;13.07;54.48
50592;BME280;36548;50.506;30.834;2023-04-26T02:01:30;99013.51;;;13.06;54.65
50592;BME280;36548;50.506;30.834;2023-04-26T02:02:46;99012.61;;;13.16;54.72
50592;BME280;36548;50.506;30.834;2023-04-26T02:03:55;99003.00;;;13.03;54.63
50592;BME280;36548;50.506;30.834;2023-04-26T02:05:11;99005.81;;;13.11;54.84
50592;BME280;36548;50.506;30.834;2023-04-26T02:06:21;99006.14;;;12.99;55.04
50592;BME280;36548;50.506;30.834;2023-04-26T02:07:32;99005.45;;;12.96;55.08
50592;BME280;36548;50.506;30.834;2023-04-26T02:08:47;99005.54;;;13.05;55.30
50592;BME280;36548;50.506;30.834;2023-04-26T02:09:56;99002.33;;;12.91;55.28
50592;BME280;36548;50.506;30.834;2023-04-26T02:11:12;99008.68;;;13.00;55.40
50592;BME280;36548;50.506;30.834;2023-04-26T02:12:21;99010.13;;;12.85;55.46
50592;BME280;36548;50.506;30.834;2023-04-26T02:13:37;99006.73;;;12.92;55.86
50592;BME280;36548;50.506;30.834;2023-04-26T02:14:46;99005.19;;;12.80;55.81
50592;BME280;36548;50.506;30.834;2023-04-26T02:16:01;99000.05;;;12.87;55.83
50592;BME280;36548;50.506;30.834;2023-04-26T02:17:11;99004.04;;;12.73;56.08
50592;BME280;36548;50.506;30.834;2023-04-26T02:18:26;98999.80;;;12.80;56.39
50592;BME280;36548;50.506;30.834;2023-04-26T02:19:37;99001.78;;;12.68;56.55
50592;BME280;36548;50.506;30.834;2023-04-26T02:20:53;99010.84;;;12.77;56.44
50592;BME280;36548;50.506;30.834;2023-04-26T02:22:04;99014.56;;;12.66;56.38
50592;BME280;36548;50.506;30.834;2023-04-26T02:23:20;99010.98;;;12.75;56.58
50592;BME280;36548;50.506;30.834;2023-04-26T02:24:30;99011.14;;;12.64;56.79
50592;BME280;36548;50.506;30.834;2023-04-26T02:25:45;99008.44;;;12.74;56.87
50592;BME280;36548;50.506;30.834;2023-04-26T02:26:55;99004.92;;;12.64;56.94
50592;BME280;36548;50.506;30.834;2023-04-26T02:28:13;99001.92;;;12.76;56.94
50592;BME280;36548;50.506;30.834;2023-04-26T02:29:24;99011.00;;;12.66;56.85
50592;BME280;36548;50.506;30.834;2023-04-26T02:30:39;99009.42;;;12.73;57.06
50592;BME280;36548;50.506;30.834;2023-04-26T02:31:49;99021.08;;;12.64;56.88
50592;BME280;36548;50.506;30.834;2023-04-26T02:33:05;99020.20;;;12.73;57.41
50592;BME280;36548;50.506;30.834;2023-04-26T02:34:16;99016.82;;;12.61;57.95
50592;BME280;36548;50.506;30.834;2023-04-26T02:35:31;99011.57;;;12.69;58.49
50592;BME280;36548;50.506;30.834;2023-04-26T02:36:44;99015.41;;;12.57;58.16
50592;BME280;36548;50.506;30.834;2023-04-26T02:37:55;99013.70;;;12.56;58.94
50592;BME280;36548;50.506;30.834;2023-04-26T02:39:10;99004.77;;;12.65;59.44
50592;BME280;36548;50.506;30.834;2023-04-26T02:40:21;99015.55;;;12.55;59.88
50592;BME280;36548;50.506;30.834;2023-04-26T02:41:37;99014.27;;;12.69;59.84
50592;BME280;36548;50.506;30.834;2023-04-26T02:42:47;99018.67;;;12.60;59.62
50592;BME280;36548;50.506;30.834;2023-04-26T02:44:04;99008.44;;;12.74;59.80
50592;BME280;36548;50.506;30.834;2023-04-26T02:45:13;99010.16;;;12.65;59.60
50592;BME280;36548;50.506;30.834;2023-04-26T02:46:30;99013.53;;;12.77;59.67
50592;BME280;36548;50.506;30.834;2023-04-26T02:47:40;99015.25;;;12.68;59.91
50592;BME280;36548;50.506;30.834;2023-04-26T02:48:56;99005.88;;;12.82;60.30
50592;BME280;36548;50.506;30.834;2023-04-26T02:50:07;99012.98;;;12.73;60.20
50592;BME280;36548;50.506;30.834;2023-04-26T02:51:43;99015.22;;;12.88;60.32
50592;BME280;36548;50.506;30.834;2023-04-26T02:52:52;99015.96;;;12.80;60.13
50592;BME280;36548;50.506;30.834;2023-04-26T02:54:07;99014.81;;;12.92;60.09
50592;BME280;36548;50.506;30.834;2023-04-26T02:55:17;99005.88;;;12.82;59.72
50592;BME280;36548;50.506;30.834;2023-04-26T02:56:32;98999.48;;;12.93;59.45
50592;BME280;36548;50.506;30.834;2023-04-26T02:57:42;99002.34;;;12.82;59.28
50592;BME280;36548;50.506;30.834;2023-04-26T02:58:58;99000.47;;;12.92;59.41
50592;BME280;36548;50.506;30.834;2023-04-26T03:00:08;99006.75;;;12.83;59.15
50592;BME280;36548;50.506;30.834;2023-04-26T03:01:43;98993.27;;;12.92;59.61
50592;BME280;36548;50.506;30.834;2023-04-26T03:02:52;99003.91;;;12.84;59.62
50592;BME280;36548;50.506;30.834;2023-04-26T03:04:09;99000.18;;;12.95;59.59
50592;BME280;36548;50.506;30.834;2023-04-26T03:05:19;99002.89;;;12.85;59.76
50592;BME280;36548;50.506;30.834;2023-04-26T03:06:34;98992.97;;;12.95;59.74
50592;BME280;36548;50.506;30.834;2023-04-26T03:07:43;98988.59;;;12.85;59.77
50592;BME280;36548;50.506;30.834;2023-04-26T03:08:59;98992.81;;;12.97;60.10
50592;BME280;36548;50.506;30.834;2023-04-26T03:10:09;98986.47;;;12.88;60.40
50592;BME280;36548;50.506;30.834;2023-04-26T03:11:19;98988.44;;;12.86;60.31
50592;BME280;36548;50.506;30.834;2023-04-26T03:12:35;98991.83;;;12.98;60.67
50592;BME280;36548;50.506;30.834;2023-04-26T03:13:45;98985.45;;;12.89;60.75
50592;BME280;36548;50.506;30.834;2023-04-26T03:15:00;98994.23;;;13.01;60.62
50592;BME280;36548;50.506;30.834;2023-04-26T03:16:11;98999.48;;;12.93;60.62
50592;BME280;36548;50.506;30.834;2023-04-26T03:17:28;98990.09;;;13.07;60.46
50592;BME280;36548;50.506;30.834;2023-04-26T03:18:37;98999.05;;;12.98;60.16
50592;BME280;36548;50.506;30.834;2023-04-26T03:19:53;98999.73;;;13.09;60.43
50592;BME280;36548;50.506;30.834;2023-04-26T03:21:02;98997.07;;;13.00;60.53
50592;BME280;36548;50.506;30.834;2023-04-26T03:22:20;98986.27;;;13.09;60.52
50592;BME280;36548;50.506;30.834;2023-04-26T03:23:31;98996.08;;;13.01;60.42
50592;BME280;36548;50.506;30.834;2023-04-26T03:24:46;98988.81;;;13.11;60.36
50592;BME280;36548;50.506;30.834;2023-04-26T03:25:56;98991.53;;;13.01;60.18
50592;BME280;36548;50.506;30.834;2023-04-26T03:27:06;98997.76;;;13.02;60.05
50592;BME280;36548;50.506;30.834;2023-04-26T03:28:17;98996.92;;;13.01;59.93
50592;BME280;36548;50.506;30.834;2023-04-26T03:29:32;98991.35;;;13.12;59.91
50592;BME280;36548;50.506;30.834;2023-04-26T03:30:42;98993.39;;;13.01;59.83
50592;BME280;36548;50.506;30.834;2023-04-26T03:31:52;98997.07;;;13.00;59.85
50592;BME280;36548;50.506;30.834;2023-04-26T03:33:08;99004.14;;;13.10;60.05
50592;BME280;36548;50.506;30.834;2023-04-26T03:34:18;99004.28;;;12.99;60.10
50592;BME280;36548;50.506;30.834;2023-04-26T03:35:28;99002.31;;;13.01;60.16
50592;BME280;36548;50.506;30.834;2023-04-26T03:36:43;98998.75;;;13.10;59.83
50592;BME280;36548;50.506;30.834;2023-04-26T03:37:52;98997.07;;;13.00;60.08
50592;BME280;36548;50.506;30.834;2023-04-26T03:39:04;99006.28;;;12.97;60.06
50592;BME280;36548;50.506;30.834;2023-04-26T03:40:23;98994.65;;;13.06;60.35
50592;BME280;36548;50.506;30.834;2023-04-26T03:41:34;99007.42;;;12.94;59.82
50592;BME280;36548;50.506;30.834;2023-04-26T03:42:52;99005.30;;;12.98;60.08
50592;BME280;36548;50.506;30.834;2023-04-26T03:44:02;99012.25;;;12.81;60.35
50592;BME280;36548;50.506;30.834;2023-04-26T03:45:18;99004.59;;;12.86;60.43
50592;BME280;36548;50.506;30.834;2023-04-26T03:46:27;99012.41;;;12.70;60.54
50592;BME280;36548;50.506;30.834;2023-04-26T03:47:37;99017.40;;;12.65;60.80
50592;BME280;36548;50.506;30.834;2023-04-26T03:48:52;99013.55;;;12.67;61.36
50592;BME280;36548;50.506;30.834;2023-04-26T03:50:03;99022.06;;;12.53;61.47
50592;BME280;36548;50.506;30.834;2023-04-26T03:51:19;99019.66;;;12.59;61.90
50592;BME280;36548;50.506;30.834;2023-04-26T03:52:29;99020.79;;;12.47;61.83
50592;BME280;36548;50.506;30.834;2023-04-26T03:53:39;99026.46;;;12.44;61.88
50592;BME280;36548;50.506;30.834;2023-04-26T03:54:55;99021.62;;;12.48;62.54
50592;BME280;36548;50.506;30.834;2023-04-26T03:56:04;99018.38;;;12.34;63.01
50592;BME280;36548;50.506;30.834;2023-04-26T03:57:19;99018.39;;;12.44;63.13
50592;BME280;36548;50.506;30.834;2023-04-26T03:58:32;99022.34;;;12.30;62.87
50592;BME280;36548;50.506;30.834;2023-04-26T03:59:41;99020.92;;;12.26;63.58
50592;BME280;36548;50.506;30.834;2023-04-26T04:00:57;99019.08;;;12.36;63.88
50592;BME280;36548;50.506;30.834;2023-04-26T04:02:06;99023.62;;;12.26;64.15
50592;BME280;36548;50.506;30.834;2023-04-26T04:03:16;99019.91;;;12.27;64.34
50592;BME280;36548;50.506;30.834;2023-04-26T04:04:26;99017.80;;;12.31;64.51
50592;BME280;36548;50.506;30.834;2023-04-26T04:05:35;99017.66;;;12.32;64.39
50592;BME280;36548;50.506;30.834;2023-04-26T04:06:51;99010.17;;;12.45;64.74
50592;BME280;36548;50.506;30.834;2023-04-26T04:08:01;99019.80;;;12.38;64.85
50592;BME280;36548;50.506;30.834;2023-04-26T04:09:11;99013.01;;;12.44;64.67
50592;BME280;36548;50.506;30.834;2023-04-26T04:10:21;99020.94;;;12.45;64.22
50592;BME280;36548;50.506;30.834;2023-04-26T04:11:36;99015.55;;;12.55;64.39
50592;BME280;36548;50.506;30.834;2023-04-26T04:12:45;99017.52;;;12.43;64.26
50592;BME280;36548;50.506;30.834;2023-04-26T04:14:00;99013.70;;;12.56;64.38
50592;BME280;36548;50.506;30.834;2023-04-26T04:15:11;99024.32;;;12.48;64.42
50592;BME280;36548;50.506;30.834;2023-04-26T04:16:23;99018.94;;;12.48;64.23
50592;BME280;36548;50.506;30.834;2023-04-26T04:17:38;99006.34;;;12.58;64.17
50592;BME280;36548;50.506;30.834;2023-04-26T04:18:47;99019.81;;;12.48;64.29
50592;BME280;36548;50.506;30.834;2023-04-26T04:19:56;99011.01;;;12.46;64.24
50592;BME280;36548;50.506;30.834;2023-04-26T04:21:12;99006.34;;;12.58;64.48
50592;BME280;36548;50.506;30.834;2023-04-26T04:22:23;99011.59;;;12.50;64.52
50592;BME280;36548;50.506;30.834;2023-04-26T04:23:32;99005.34;;;12.49;64.40
50592;BME280;36548;50.506;30.834;2023-04-26T04:24:48;98997.98;;;12.61;64.33
50592;BME280;36548;50.506;30.834;2023-04-26T04:25:57;98997.98;;;12.51;64.50
50592;BME280;36548;50.506;30.834;2023-04-26T04:27:13;98989.06;;;12.60;64.33
50592;BME280;36548;50.506;30.834;2023-04-26T04:28:23;98998.42;;;12.47;64.29
50592;BME280;36548;50.506;30.834;2023-04-26T04:29:39;98988.78;;;12.54;64.48
50592;BME280;36548;50.506;30.834;2023-04-26T04:30:50;98997.84;;;12.43;64.67
50592;BME280;36548;50.506;30.834;2023-04-26T04:32:00;98999.41;;;12.45;64.73
50592;BME280;36548;50.506;30.834;2023-04-26T04:33:09;98991.88;;;12.49;64.45
50592;BME280;36548;50.506;30.834;2023-04-26T04:34:26;99001.24;;;12.65;64.24
50592;BME280;36548;50.506;30.834;2023-04-26T04:35:35;98993.03;;;12.56;64.35
50592;BME280;36548;50.506;30.834;2023-04-26T04:36:49;98994.28;;;12.72;64.17
50592;BME280;36548;50.506;30.834;2023-04-26T04:37:59;98994.98;;;12.64;64.13
50592;BME280;36548;50.506;30.834;2023-04-26T04:39:15;98990.31;;;12.76;63.65
50592;BME280;36548;50.506;30.834;2023-04-26T04:40:28;99011.00;;;12.66;63.46
50592;BME280;36548;50.506;30.834;2023-04-26T04:41:43;99002.91;;;12.75;63.30
50592;BME280;36548;50.506;30.834;2023-04-26T04:42:57;99013.14;;;12.62;63.68
50592;BME280;36548;50.506;30.834;2023-04-26T04:44:09;99010.30;;;12.64;63.86
50592;BME280;36548;50.506;30.834;2023-04-26T04:45:24;99007.16;;;12.78;64.11
50592;BME280;36548;50.506;30.834;2023-04-26T04:46:36;99010.59;;;12.70;63.84
50592;BME280;36548;50.506;30.834;2023-04-26T04:47:51;99005.19;;;12.80;63.57
50592;BME280;36548;50.506;30.834;2023-04-26T04:49:02;99003.34;;;12.71;63.66
50592;BME280;36548;50.506;30.834;2023-04-26T04:50:12;99006.73;;;12.73;63.89
50592;BME280;36548;50.506;30.834;2023-04-26T04:51:28;98998.52;;;12.84;63.64
50592;BME280;36548;50.506;30.834;2023-04-26T04:52:37;98999.67;;;12.72;63.57
50592;BME280;36548;50.506;30.834;2023-04-26T04:53:53;98995.25;;;12.81;64.04
50592;BME280;36548;50.506;30.834;2023-04-26T04:55:03;98999.52;;;12.73;64.27
50592;BME280;36548;50.506;30.834;2023-04-26T04:56:19;98999.06;;;12.88;64.04
50592;BME280;36548;50.506;30.834;2023-04-26T04:57:30;99005.34;;;12.78;63.95
50592;BME280;36548;50.506;30.834;2023-04-26T04:58:40;98999.51;;;12.83;63.67
50592;BME280;36548;50.506;30.834;2023-04-26T04:59:49;99004.75;;;12.85;63.74
50592;BME280;36548;50.506;30.834;2023-04-26T05:00:59;98999.06;;;12.88;63.68
50592;BME280;36548;50.506;30.834;2023-04-26T05:02:11;98998.92;;;12.89;63.65
50592;BME280;36548;50.506;30.834;2023-04-26T05:03:26;98991.53;;;13.01;63.92
50592;BME280;36548;50.506;30.834;2023-04-26T05:04:36;98991.70;;;12.90;63.60
50592;BME280;36548;50.506;30.834;2023-04-26T05:05:51;98986.98;;;13.02;63.69
50592;BME280;36548;50.506;30.834;2023-04-26T05:07:00;98991.28;;;12.85;63.56
50592;BME280;36548;50.506;30.834;2023-04-26T05:08:16;98993.66;;;12.98;63.49
50592;BME280;36548;50.506;30.834;2023-04-26T05:09:25;98987.60;;;12.86;63.64
50592;BME280;36548;50.506;30.834;2023-04-26T05:10:35;98994.66;;;12.87;64.03
50592;BME280;36548;50.506;30.834;2023-04-26T05:11:51;98994.23;;;13.01;64.32
50592;BME280;36548;50.506;30.834;2023-04-26T05:12:59;98998.65;;;12.92;64.08
50592;BME280;36548;50.506;30.834;2023-04-26T05:14:20;98996.47;;;13.06;64.03
50592;BME280;36548;50.506;30.834;2023-04-26T05:15:29;99002.61;;;12.98;63.78
50592;BME280;36548;50.506;30.834;2023-04-26T05:16:39;99000.75;;;12.99;63.57
50592;BME280;36548;50.506;30.834;2023-04-26T05:17:48;98993.50;;;12.99;63.64
50592;BME280;36548;50.506;30.834;2023-04-26T05:19:05;98996.74;;;13.12;63.39
50592;BME280;36548;50.506;30.834;2023-04-26T05:20:17;99003.14;;;13.02;63.31
50592;BME280;36548;50.506;30.834;2023-04-26T05:21:26;98998.20;;;12.97;63.38
50592;BME280;36548;50.506;30.834;2023-04-26T05:22:42;98997.88;;;13.10;63.60
50592;BME280;36548;50.506;30.834;2023-04-26T05:23:53;98993.50;;;12.99;63.26
50592;BME280;36548;50.506;30.834;2023-04-26T05:25:08;98996.74;;;13.12;63.33
50592;BME280;36548;50.506;30.834;2023-04-26T05:26:21;99001.17;;;13.04;63.09
50592;BME280;36548;50.506;30.834;2023-04-26T05:27:37;98998.30;;;13.15;62.90
50592;BME280;36548;50.506;30.834;2023-04-26T05:29:03;99002.84;;;13.05;63.21
50592;BME280;36548;50.506;30.834;2023-04-26T05:30:18;99009.64;;;13.09;63.06
50592;BME280;36548;50.506;30.834;2023-04-26T05:31:33;99006.50;;;13.23;62.31
50592;BME280;36548;50.506;30.834;2023-04-26T05:32:44;99012.22;;;13.10;62.37
50592;BME280;36548;50.506;30.834;2023-04-26T05:34:11;99012.64;;;13.06;62.33
50592;BME280;36548;50.506;30.834;2023-04-26T05:35:22;99013.23;;;13.00;63.00
50592;BME280;36548;50.506;30.834;2023-04-26T05:36:32;99016.08;;;12.98;62.94
50592;BME280;36548;50.506;30.834;2023-04-26T05:37:47;99016.31;;;13.05;62.91
50592;BME280;36548;50.506;30.834;2023-04-26T05:38:57;99012.53;;;12.88;62.99
50592;BME280;36548;50.506;30.834;2023-04-26T05:40:08;99015.67;;;12.83;63.29
50592;BME280;36548;50.506;30.834;2023-04-26T05:41:21;99024.45;;;12.75;63.78
50592;BME280;36548;50.506;30.834;2023-04-26T05:42:29;99012.12;;;12.73;63.81
50592;BME280;36548;50.506;30.834;2023-04-26T05:43:46;99018.50;;;12.82;63.98
50592;BME280;36548;50.506;30.834;2023-04-26T05:44:58;99012.41;;;12.70;63.95
50592;BME280;36548;50.506;30.834;2023-04-26T05:46:09;99017.40;;;12.65;64.38
50592;BME280;36548;50.506;30.834;2023-04-26T05:47:28;99010.30;;;12.73;64.87
50592;BME280;36548;50.506;30.834;2023-04-26T06:28:07;99019.38;;;13.39;62.67
50592;BME280;36548;50.506;30.834;2023-04-26T06:29:16;99024.08;;;13.27;62.38
50592;BME280;36548;50.506;30.834;2023-04-26T06:30:32;99031.17;;;13.38;62.75
50592;BME280;36548;50.506;30.834;2023-04-26T06:31:41;99025.22;;;13.25;62.36
50592;BME280;36548;50.506;30.834;2023-04-26T06:32:50;99013.87;;;13.21;62.30
50592;BME280;36548;50.506;30.834;2023-04-26T06:34:06;99017.81;;;13.27;62.70
50592;BME280;36548;50.506;30.834;2023-04-26T06:35:16;99025.39;;;13.13;62.89
50592;BME280;36548;50.506;30.834;2023-04-26T06:36:26;99022.55;;;13.15;63.10
50592;BME280;36548;50.506;30.834;2023-04-26T06:37:36;99030.63;;;13.15;62.93
50592;BME280;36548;50.506;30.834;2023-04-26T06:38:53;99016.30;;;13.24;63.05
50592;BME280;36548;50.506;30.834;2023-04-26T06:40:02;99021.71;;;13.15;63.13
50592;BME280;36548;50.506;30.834;2023-04-26T06:41:12;99024.41;;;13.15;63.22
50592;BME280;36548;50.506;30.834;2023-04-26T06:42:46;99026.92;;;13.26;62.85
50592;BME280;36548;50.506;30.834;2023-04-26T06:44:41;99023.69;;;13.12;63.03
50592;BME280;36548;50.506;30.834;2023-04-26T06:45:57;99016.98;;;13.26;63.33
50592;BME280;36548;50.506;30.834;2023-04-26T06:47:15;99024.11;;;13.18;63.30
50592;BME280;36548;50.506;30.834;2023-04-26T06:48:24;99029.64;;;13.16;63.35
50592;BME280;36548;50.506;30.834;2023-04-26T06:49:40;99015.13;;;13.27;63.56
50592;BME280;36548;50.506;30.834;2023-04-26T06:50:50;99029.34;;;13.19;63.54
50592;BME280;36548;50.506;30.834;2023-04-26T06:52:06;99018.23;;;13.32;63.65
50592;BME280;36548;50.506;30.834;2023-04-26T06:53:17;99030.91;;;13.22;63.64
50592;BME280;36548;50.506;30.834;2023-04-26T06:54:32;99026.17;;;13.34;63.55
50592;BME280;36548;50.506;30.834;2023-04-26T06:55:43;99021.95;;;13.21;63.27
50592;BME280;36548;50.506;30.834;2023-04-26T06:56:53;99023.81;;;13.21;63.52
50592;BME280;36548;50.506;30.834;2023-04-26T06:58:04;99016.30;;;13.24;63.40
50592;BME280;36548;50.506;30.834;2023-04-26T06:59:21;99021.53;;;13.36;63.16
50592;BME280;36548;50.506;30.834;2023-04-26T07:00:30;99022.82;;;13.22;62.70
50592;BME280;36548;50.506;30.834;2023-04-26T07:01:41;99019.41;;;13.20;62.92